sensor_id;sensor_type;location;lat;lon;timestamp;temperature;humidity
1948;DHT22;974;52.400;9.818;2023-04-15T00:00:30;7.50;99.90
1948;DHT22;974;52.400;9.818;2023-04-15T00:02:55;7.50;99.90
1948;DHT22;974;52.400;9.818;2023-04-15T00:05:21;7.50;99.90
1948;DHT22;974;52.400;9.818;2023-04-15T00:07:46;7.40;99.90
1948;DHT22;974;52.400;9.818;2023-04-15T00:10:15;7.40;99.90
1948;DHT22;974;52.400;9.818;2023-04-15T00:12:40;7.40;99.90
1948;DHT22;974;52.400;9.818;2023-04-15T00:15:07;7.40;99.90
1948;DHT22;974;52.400;9.818;2023-04-15T00:17:34;7.40;99.90
1948;DHT22;974;52.400;9.818;2023-04-15T00:19:59;7.40;99.90
1948;DHT22;974;52.400;9.818;2023-04-15T00:22:26;7.30;99.90
1948;DHT22;974;52.400;9.818;2023-04-15T00:24:52;7.30;99.90
1948;DHT22;974;52.400;9.818;2023-04-15T00:27:18;7.30;99.90
1948;DHT22;974;52.400;9.818;2023-04-15T00:29:47;7.40;99.90
1948;DHT22;974;52.400;9.818;2023-04-15T00:32:12;7.30;99.90
1948;DHT22;974;52.400;9.818;2023-04-15T00:34:38;7.30;99.90
1948;DHT22;974;52.400;9.818;2023-04-15T00:37:03;7.40;99.90
1948;DHT22;974;52.400;9.818;2023-04-15T00:39:29;7.40;99.90
1948;DHT22;974;52.400;9.818;2023-04-15T00:41:55;7.40;99.90
1948;DHT22;974;52.400;9.818;2023-04-15T00:44:25;7.30;99.90
1948;DHT22;974;52.400;9.818;2023-04-15T00:46:51;7.40;99.90
1948;DHT22;974;52.400;9.818;2023-04-15T00:49:17;7.40;99.90
1948;DHT22;974;52.400;9.818;2023-04-15T00:51:43;7.40;99.90
1948;DHT22;974;52.400;9.818;2023-04-15T00:54:09;7.30;99.90
1948;DHT22;974;52.400;9.818;2023-04-15T00:56:35;7.40;99.90
1948;DHT22;974;52.400;9.818;2023-04-15T00:59:02;7.40;99.90
1948;DHT22;974;52.400;9.818;2023-04-15T01:01:28;7.40;99.90
1948;DHT22;974;52.400;9.818;2023-04-15T01:03:56;7.30;99.90
1948;DHT22;974;52.400;9.818;2023-04-15T01:06:23;7.30;99.90
1948;DHT22;974;52.400;9.818;2023-04-15T01:08:48;7.30;99.90
1948;DHT22;974;52.400;9.818;2023-04-15T01:11:14;7.40;99.90
1948;DHT22;974;52.400;9.818;2023-04-15T01:13:40;7.30;99.90
1948;DHT22;974;52.400;9.818;2023-04-15T01:16:06;7.40;99.90
1948;DHT22;974;52.400;9.818;2023-04-15T01:18:33;7.40;99.90
1948;DHT22;974;52.400;9.818;2023-04-15T01:21:00;7.30;99.90
1948;DHT22;974;52.400;9.818;2023-04-15T01:23:29;7.40;99.90
1948;DHT22;974;52.400;9.818;2023-04-15T01:25:55;7.40;99.90
1948;DHT22;974;52.400;9.818;2023-04-15T01:28:21;7.40;99.90
1948;DHT22;974;52.400;9.818;2023-04-15T01:30:46;7.40;99.90
1948;DHT22;974;52.400;9.818;2023-04-15T01:33:12;7.40;99.90
1948;DHT22;974;52.400;9.818;2023-04-15T01:35:37;7.40;99.90
1948;DHT22;974;52.400;9.818;2023-04-15T01:38:07;7.50;99.90
1948;DHT22;974;52.400;9.818;2023-04-15T01:40:34;7.50;99.90
1948;DHT22;974;52.400;9.818;2023-04-15T01:43:00;7.50;99.90
1948;DHT22;974;52.400;9.818;2023-04-15T01:45:26;7.40;99.90
1948;DHT22;974;52.400;9.818;2023-04-15T01:47:52;7.40;99.90
1948;DHT22;974;52.400;9.818;2023-04-15T01:50:17;7.50;99.90
1948;DHT22;974;52.400;9.818;2023-04-15T01:52:44;7.50;99.90
1948;DHT22;974;52.400;9.818;2023-04-15T01:55:12;7.50;99.90
1948;DHT22;974;52.400;9.818;2023-04-15T01:57:38;7.50;99.90
1948;DHT22;974;52.400;9.818;2023-04-15T02:00:04;7.50;99.90
1948;DHT22;974;52.400;9.818;2023-04-15T02:02:32;7.50;99.90
1948;DHT22;974;52.400;9.818;2023-04-15T02:04:57;7.40;99.90
1948;DHT22;974;52.400;9.818;2023-04-15T02:07:23;7.40;99.90
1948;DHT22;974;52.400;9.818;2023-04-15T02:09:49;7.50;99.90
1948;DHT22;974;52.400;9.818;2023-04-15T02:12:14;7.40;99.90
1948;DHT22;974;52.400;9.818;2023-04-15T02:14:40;7.30;99.90
1948;DHT22;974;52.400;9.818;2023-04-15T02:17:06;7.40;99.90
1948;DHT22;974;52.400;9.818;2023-04-15T02:19:35;7.40;99.90
1948;DHT22;974;52.400;9.818;2023-04-15T02:22:01;7.40;99.90
1948;DHT22;974;52.400;9.818;2023-04-15T02:24:27;7.50;99.90
1948;DHT22;974;52.400;9.818;2023-04-15T02:26:53;7.50;99.90
1948;DHT22;974;52.400;9.818;2023-04-15T02:29:18;7.50;99.90
1948;DHT22;974;52.400;9.818;2023-04-15T02:31:44;7.50;99.90
1948;DHT22;974;52.400;9.818;2023-04-15T02:34:09;7.50;99.90
1948;DHT22;974;52.400;9.818;2023-04-15T02:36:35;7.50;99.90
1948;DHT22;974;52.400;9.818;2023-04-15T02:39:01;7.50;99.90
1948;DHT22;974;52.400;9.818;2023-04-15T02:41:28;7.40;99.90
1948;DHT22;974;52.400;9.818;2023-04-15T02:43:54;7.50;99.90
1948;DHT22;974;52.400;9.818;2023-04-15T02:46:20;7.40;99.90
1948;DHT22;974;52.400;9.818;2023-04-15T02:48:50;7.50;99.90
1948;DHT22;974;52.400;9.818;2023-04-15T02:51:17;7.50;99.90
1948;DHT22;974;52.400;9.818;2023-04-15T02:53:44;7.40;99.90
1948;DHT22;974;52.400;9.818;2023-04-15T02:56:10;7.40;99.90
1948;DHT22;974;52.400;9.818;2023-04-15T02:58:38;7.60;99.90
1948;DHT22;974;52.400;9.818;2023-04-15T03:01:03;7.40;99.90
1948;DHT22;974;52.400;9.818;2023-04-15T03:03:29;7.40;99.90
1948;DHT22;974;52.400;9.818;2023-04-15T03:05:55;7.40;99.90
1948;DHT22;974;52.400;9.818;2023-04-15T03:08:20;7.50;99.90
1948;DHT22;974;52.400;9.818;2023-04-15T03:10:46;7.50;99.90
1948;DHT22;974;52.400;9.818;2023-04-15T03:13:12;7.50;99.90
1948;DHT22;974;52.400;9.818;2023-04-15T03:15:38;7.40;99.90
1948;DHT22;974;52.400;9.818;2023-04-15T03:18:03;7.40;99.90
1948;DHT22;974;52.400;9.818;2023-04-15T03:20:29;7.40;99.90
1948;DHT22;974;52.400;9.818;2023-04-15T03:22:55;7.40;99.90
1948;DHT22;974;52.400;9.818;2023-04-15T03:25:20;7.20;99.90
1948;DHT22;974;52.400;9.818;2023-04-15T03:27:46;7.30;99.90
1948;DHT22;974;52.400;9.818;2023-04-15T03:30:12;7.20;99.90
1948;DHT22;974;52.400;9.818;2023-04-15T03:32:38;7.20;99.90
1948;DHT22;974;52.400;9.818;2023-04-15T03:35:07;7.30;99.90
1948;DHT22;974;52.400;9.818;2023-04-15T03:37:33;7.20;99.90
1948;DHT22;974;52.400;9.818;2023-04-15T03:40:02;7.20;99.90
1948;DHT22;974;52.400;9.818;2023-04-15T03:42:28;7.20;99.90
1948;DHT22;974;52.400;9.818;2023-04-15T03:44:54;7.20;99.90
1948;DHT22;974;52.400;9.818;2023-04-15T03:47:19;7.20;99.90
1948;DHT22;974;52.400;9.818;2023-04-15T03:49:45;7.20;99.90
1948;DHT22;974;52.400;9.818;2023-04-15T03:52:11;7.20;99.90
1948;DHT22;974;52.400;9.818;2023-04-15T03:54:36;7.20;99.90
1948;DHT22;974;52.400;9.818;2023-04-15T03:57:02;7.20;99.90
1948;DHT22;974;52.400;9.818;2023-04-15T03:59:27;7.20;99.90
1948;DHT22;974;52.400;9.818;2023-04-15T04:01:53;7.10;99.90
1948;DHT22;974;52.400;9.818;2023-04-15T04:04:18;7.20;99.90
1948;DHT22;974;52.400;9.818;2023-04-15T04:06:44;7.10;99.90
1948;DHT22;974;52.400;9.818;2023-04-15T04:09:09;7.10;99.90
1948;DHT22;974;52.400;9.818;2023-04-15T04:11:35;7.20;99.90
1948;DHT22;974;52.400;9.818;2023-04-15T04:14:02;7.10;99.90
1948;DHT22;974;52.400;9.818;2023-04-15T04:16:27;7.10;99.90
1948;DHT22;974;52.400;9.818;2023-04-15T04:18:53;7.10;99.90
1948;DHT22;974;52.400;9.818;2023-04-15T04:21:18;7.20;99.90
1948;DHT22;974;52.400;9.818;2023-04-15T04:23:45;7.20;99.90
1948;DHT22;974;52.400;9.818;2023-04-15T04:26:11;7.20;99.90
1948;DHT22;974;52.400;9.818;2023-04-15T04:28:36;7.20;99.90
1948;DHT22;974;52.400;9.818;2023-04-15T04:31:03;7.20;99.90
1948;DHT22;974;52.400;9.818;2023-04-15T04:33:29;7.10;99.90
1948;DHT22;974;52.400;9.818;2023-04-15T04:35:54;7.20;99.90
1948;DHT22;974;52.400;9.818;2023-04-15T04:38:23;7.20;99.90
1948;DHT22;974;52.400;9.818;2023-04-15T04:40:51;7.00;99.90
1948;DHT22;974;52.400;9.818;2023-04-15T04:43:20;7.10;99.90
1948;DHT22;974;52.400;9.818;2023-04-15T04:45:45;7.10;99.90
1948;DHT22;974;52.400;9.818;2023-04-15T04:48:11;7.10;99.90
1948;DHT22;974;52.400;9.818;2023-04-15T04:50:37;7.10;99.90
1948;DHT22;974;52.400;9.818;2023-04-15T04:53:02;7.10;99.90
1948;DHT22;974;52.400;9.818;2023-04-15T04:55:28;7.10;99.90
1948;DHT22;974;52.400;9.818;2023-04-15T04:57:53;7.10;99.90
1948;DHT22;974;52.400;9.818;2023-04-15T05:00:22;7.00;99.90
1948;DHT22;974;52.400;9.818;2023-04-15T05:02:47;7.10;99.90
1948;DHT22;974;52.400;9.818;2023-04-15T05:05:13;7.10;99.90
1948;DHT22;974;52.400;9.818;2023-04-15T05:07:38;7.10;99.90
1948;DHT22;974;52.400;9.818;2023-04-15T05:10:04;7.10;99.90
1948;DHT22;974;52.400;9.818;2023-04-15T05:12:30;7.10;99.90
1948;DHT22;974;52.400;9.818;2023-04-15T05:14:56;7.10;99.90
1948;DHT22;974;52.400;9.818;2023-04-15T05:17:25;7.10;99.90
1948;DHT22;974;52.400;9.818;2023-04-15T05:19:50;7.10;99.90
1948;DHT22;974;52.400;9.818;2023-04-15T05:22:16;7.10;99.90
1948;DHT22;974;52.400;9.818;2023-04-15T05:24:41;7.10;99.90
1948;DHT22;974;52.400;9.818;2023-04-15T05:27:07;7.10;99.90
1948;DHT22;974;52.400;9.818;2023-04-15T05:29:34;7.10;99.90
1948;DHT22;974;52.400;9.818;2023-04-15T05:32:00;7.10;99.90
1948;DHT22;974;52.400;9.818;2023-04-15T05:34:26;7.10;99.90
1948;DHT22;974;52.400;9.818;2023-04-15T05:36:51;7.00;99.90
1948;DHT22;974;52.400;9.818;2023-04-15T05:39:19;7.10;99.90
1948;DHT22;974;52.400;9.818;2023-04-15T05:41:45;7.10;99.90
1948;DHT22;974;52.400;9.818;2023-04-15T05:44:11;7.00;99.90
1948;DHT22;974;52.400;9.818;2023-04-15T05:46:36;7.00;99.90
1948;DHT22;974;52.400;9.818;2023-04-15T05:49:02;7.10;99.90
1948;DHT22;974;52.400;9.818;2023-04-15T05:51:27;7.10;99.90
1948;DHT22;974;52.400;9.818;2023-04-15T05:53:53;7.10;99.90
1948;DHT22;974;52.400;9.818;2023-04-15T05:56:18;7.10;99.90
1948;DHT22;974;52.400;9.818;2023-04-15T05:58:45;7.10;99.90
1948;DHT22;974;52.400;9.818;2023-04-15T06:01:10;7.20;99.90
1948;DHT22;974;52.400;9.818;2023-04-15T06:03:36;7.10;99.90
1948;DHT22;974;52.400;9.818;2023-04-15T06:06:03;7.00;99.90
1948;DHT22;974;52.400;9.818;2023-04-15T06:08:28;7.00;99.90
1948;DHT22;974;52.400;9.818;2023-04-15T06:10:54;7.10;99.90
1948;DHT22;974;52.400;9.818;2023-04-15T06:13:19;7.10;99.90
1948;DHT22;974;52.400;9.818;2023-04-15T06:15:45;7.10;99.90
1948;DHT22;974;52.400;9.818;2023-04-15T06:18:10;7.10;99.90
1948;DHT22;974;52.400;9.818;2023-04-15T06:20:36;7.00;99.90
1948;DHT22;974;52.400;9.818;2023-04-15T06:23:01;7.10;99.90
1948;DHT22;974;52.400;9.818;2023-04-15T06:25:27;7.00;99.90
1948;DHT22;974;52.400;9.818;2023-04-15T06:27:53;7.00;99.90
1948;DHT22;974;52.400;9.818;2023-04-15T06:30:18;7.10;99.90
1948;DHT22;974;52.400;9.818;2023-04-15T06:32:44;7.00;99.90
1948;DHT22;974;52.400;9.818;2023-04-15T06:35:09;7.10;99.90
1948;DHT22;974;52.400;9.818;2023-04-15T06:37:35;7.10;99.90
1948;DHT22;974;52.400;9.818;2023-04-15T06:40:00;7.10;99.90
1948;DHT22;974;52.400;9.818;2023-04-15T06:42:26;7.10;99.90
1948;DHT22;974;52.400;9.818;2023-04-15T06:44:51;7.10;99.90
1948;DHT22;974;52.400;9.818;2023-04-15T06:47:17;7.10;99.90
1948;DHT22;974;52.400;9.818;2023-04-15T06:49:42;7.20;99.90
1948;DHT22;974;52.400;9.818;2023-04-15T06:52:09;7.20;99.90
1948;DHT22;974;52.400;9.818;2023-04-15T06:54:35;7.20;99.90
1948;DHT22;974;52.400;9.818;2023-04-15T06:57:00;7.30;99.90
1948;DHT22;974;52.400;9.818;2023-04-15T06:59:26;7.30;99.90
1948;DHT22;974;52.400;9.818;2023-04-15T07:01:51;7.20;99.90
1948;DHT22;974;52.400;9.818;2023-04-15T07:04:17;7.30;99.90
1948;DHT22;974;52.400;9.818;2023-04-15T07:06:42;7.30;99.90
1948;DHT22;974;52.400;9.818;2023-04-15T07:09:08;7.40;99.90
1948;DHT22;974;52.400;9.818;2023-04-15T07:11:34;7.30;99.90
1948;DHT22;974;52.400;9.818;2023-04-15T07:14:00;7.40;99.90
1948;DHT22;974;52.400;9.818;2023-04-15T07:16:26;7.40;99.90
1948;DHT22;974;52.400;9.818;2023-04-15T07:18:52;7.40;99.90
1948;DHT22;974;52.400;9.818;2023-04-15T07:21:17;7.50;99.90
1948;DHT22;974;52.400;9.818;2023-04-15T07:23:43;7.40;99.90
1948;DHT22;974;52.400;9.818;2023-04-15T07:26:08;7.40;99.90
1948;DHT22;974;52.400;9.818;2023-04-15T07:28:35;7.50;99.90
1948;DHT22;974;52.400;9.818;2023-04-15T07:31:01;7.50;99.90
1948;DHT22;974;52.400;9.818;2023-04-15T07:33:26;7.60;99.90
1948;DHT22;974;52.400;9.818;2023-04-15T07:35:52;7.60;99.90
1948;DHT22;974;52.400;9.818;2023-04-15T07:38:17;7.50;99.90
1948;DHT22;974;52.400;9.818;2023-04-15T07:40:43;7.50;99.90
1948;DHT22;974;52.400;9.818;2023-04-15T07:43:08;7.50;99.90
1948;DHT22;974;52.400;9.818;2023-04-15T07:45:34;7.60;99.90
1948;DHT22;974;52.400;9.818;2023-04-15T07:48:00;7.60;99.90
1948;DHT22;974;52.400;9.818;2023-04-15T07:50:26;7.60;99.90
1948;DHT22;974;52.400;9.818;2023-04-15T07:52:51;7.70;99.90
1948;DHT22;974;52.400;9.818;2023-04-15T07:55:17;7.60;99.90
1948;DHT22;974;52.400;9.818;2023-04-15T07:57:45;7.60;99.90
1948;DHT22;974;52.400;9.818;2023-04-15T08:00:12;7.70;99.90
1948;DHT22;974;52.400;9.818;2023-04-15T08:02:38;7.60;99.90
1948;DHT22;974;52.400;9.818;2023-04-15T08:05:04;7.60;99.90
1948;DHT22;974;52.400;9.818;2023-04-15T08:07:29;7.60;99.90
1948;DHT22;974;52.400;9.818;2023-04-15T08:09:55;7.60;99.90
1948;DHT22;974;52.400;9.818;2023-04-15T08:12:21;7.60;99.90
1948;DHT22;974;52.400;9.818;2023-04-15T08:14:47;7.60;99.90
1948;DHT22;974;52.400;9.818;2023-04-15T08:17:12;7.70;99.90
1948;DHT22;974;52.400;9.818;2023-04-15T08:19:38;7.70;99.90
1948;DHT22;974;52.400;9.818;2023-04-15T08:22:04;7.70;99.90
1948;DHT22;974;52.400;9.818;2023-04-15T08:24:30;7.70;99.90
1948;DHT22;974;52.400;9.818;2023-04-15T08:26:56;7.70;99.90
1948;DHT22;974;52.400;9.818;2023-04-15T08:29:22;7.70;99.90
1948;DHT22;974;52.400;9.818;2023-04-15T08:31:47;7.60;99.90
1948;DHT22;974;52.400;9.818;2023-04-15T08:34:13;7.70;99.90
1948;DHT22;974;52.400;9.818;2023-04-15T08:36:39;7.80;99.90
1948;DHT22;974;52.400;9.818;2023-04-15T08:39:05;7.70;99.90
1948;DHT22;974;52.400;9.818;2023-04-15T08:41:46;7.70;99.90
1948;DHT22;974;52.400;9.818;2023-04-15T08:44:14;7.80;99.90
1948;DHT22;974;52.400;9.818;2023-04-15T08:46:43;7.80;99.90
1948;DHT22;974;52.400;9.818;2023-04-15T08:49:10;7.80;99.90
1948;DHT22;974;52.400;9.818;2023-04-15T08:51:41;7.90;99.90
1948;DHT22;974;52.400;9.818;2023-04-15T08:54:08;7.90;99.90
1948;DHT22;974;52.400;9.818;2023-04-15T08:56:36;7.90;99.90
1948;DHT22;974;52.400;9.818;2023-04-15T08:59:03;7.90;99.90
1948;DHT22;974;52.400;9.818;2023-04-15T09:01:31;8.00;99.90
1948;DHT22;974;52.400;9.818;2023-04-15T09:03:56;7.90;99.90
1948;DHT22;974;52.400;9.818;2023-04-15T09:06:23;7.90;99.90
1948;DHT22;974;52.400;9.818;2023-04-15T09:08:50;7.90;99.90
1948;DHT22;974;52.400;9.818;2023-04-15T09:11:16;8.00;99.90
1948;DHT22;974;52.400;9.818;2023-04-15T09:13:42;8.10;99.90
1948;DHT22;974;52.400;9.818;2023-04-15T09:16:08;8.10;99.90
1948;DHT22;974;52.400;9.818;2023-04-15T09:18:36;8.10;99.90
1948;DHT22;974;52.400;9.818;2023-04-15T09:21:06;8.10;99.90
1948;DHT22;974;52.400;9.818;2023-04-15T09:23:34;8.30;99.90
1948;DHT22;974;52.400;9.818;2023-04-15T09:26:03;8.40;99.90
1948;DHT22;974;52.400;9.818;2023-04-15T09:28:30;8.30;99.90
1948;DHT22;974;52.400;9.818;2023-04-15T09:31:00;8.40;99.90
1948;DHT22;974;52.400;9.818;2023-04-15T09:33:28;8.30;99.90
1948;DHT22;974;52.400;9.818;2023-04-15T09:38:26;8.40;99.90
1948;DHT22;974;52.400;9.818;2023-04-15T09:40:51;8.30;99.90
1948;DHT22;974;52.400;9.818;2023-04-15T09:43:17;8.40;99.90
1948;DHT22;974;52.400;9.818;2023-04-15T09:45:50;8.30;99.90
1948;DHT22;974;52.400;9.818;2023-04-15T09:48:24;8.30;99.90
1948;DHT22;974;52.400;9.818;2023-04-15T09:50:51;8.30;99.90
1948;DHT22;974;52.400;9.818;2023-04-15T09:53:22;8.30;99.90
1948;DHT22;974;52.400;9.818;2023-04-15T09:55:49;8.40;99.90
1948;DHT22;974;52.400;9.818;2023-04-15T09:58:26;8.40;99.90
1948;DHT22;974;52.400;9.818;2023-04-15T10:00:56;8.50;99.90
1948;DHT22;974;52.400;9.818;2023-04-15T10:03:29;8.50;99.90
1948;DHT22;974;52.400;9.818;2023-04-15T10:05:58;8.50;99.90
1948;DHT22;974;52.400;9.818;2023-04-15T10:08:26;8.50;99.90
1948;DHT22;974;52.400;9.818;2023-04-15T10:10:52;8.50;99.90
1948;DHT22;974;52.400;9.818;2023-04-15T10:13:29;8.50;99.90
1948;DHT22;974;52.400;9.818;2023-04-15T10:16:04;8.50;99.90
1948;DHT22;974;52.400;9.818;2023-04-15T10:18:33;8.50;99.90
1948;DHT22;974;52.400;9.818;2023-04-15T10:21:00;8.60;99.90
1948;DHT22;974;52.400;9.818;2023-04-15T10:23:28;8.60;99.90
1948;DHT22;974;52.400;9.818;2023-04-15T10:25:54;8.60;99.90
1948;DHT22;974;52.400;9.818;2023-04-15T10:28:20;8.70;99.90
1948;DHT22;974;52.400;9.818;2023-04-15T10:30:49;8.70;99.90
1948;DHT22;974;52.400;9.818;2023-04-15T10:33:19;8.70;99.90
1948;DHT22;974;52.400;9.818;2023-04-15T10:35:50;8.70;99.90
1948;DHT22;974;52.400;9.818;2023-04-15T10:38:39;8.70;99.90
1948;DHT22;974;52.400;9.818;2023-04-15T10:41:15;8.70;99.90
1948;DHT22;974;52.400;9.818;2023-04-15T10:49:08;8.80;99.90
1948;DHT22;974;52.400;9.818;2023-04-15T10:51:43;8.80;99.90
1948;DHT22;974;52.400;9.818;2023-04-15T10:56:41;8.90;99.90
1948;DHT22;974;52.400;9.818;2023-04-15T10:59:08;8.80;99.90
1948;DHT22;974;52.400;9.818;2023-04-15T11:02:11;8.90;99.90
1948;DHT22;974;52.400;9.818;2023-04-15T11:04:56;9.00;99.90
1948;DHT22;974;52.400;9.818;2023-04-15T11:12:54;9.10;99.90
1948;DHT22;974;52.400;9.818;2023-04-15T11:18:16;9.10;99.90
1948;DHT22;974;52.400;9.818;2023-04-15T11:20:47;9.10;99.90
1948;DHT22;974;52.400;9.818;2023-04-15T11:23:26;9.10;99.90
1948;DHT22;974;52.400;9.818;2023-04-15T11:25:57;9.10;99.90
1948;DHT22;974;52.400;9.818;2023-04-15T11:28:27;9.10;99.90
1948;DHT22;974;52.400;9.818;2023-04-15T11:30:53;9.10;99.90
1948;DHT22;974;52.400;9.818;2023-04-15T11:33:23;9.20;99.90
1948;DHT22;974;52.400;9.818;2023-04-15T11:35:52;9.20;99.90
1948;DHT22;974;52.400;9.818;2023-04-15T11:38:19;9.20;99.90
1948;DHT22;974;52.400;9.818;2023-04-15T11:40:45;9.20;99.90
1948;DHT22;974;52.400;9.818;2023-04-15T11:43:16;9.20;99.90
1948;DHT22;974;52.400;9.818;2023-04-15T11:45:55;9.30;99.90
1948;DHT22;974;52.400;9.818;2023-04-15T11:48:23;9.40;99.90
1948;DHT22;974;52.400;9.818;2023-04-15T11:50:57;9.30;99.90
1948;DHT22;974;52.400;9.818;2023-04-15T11:53:24;9.40;99.90
1948;DHT22;974;52.400;9.818;2023-04-15T11:55:51;9.40;99.90
1948;DHT22;974;52.400;9.818;2023-04-15T11:58:22;9.40;99.90
1948;DHT22;974;52.400;9.818;2023-04-15T12:03:27;9.50;99.90
1948;DHT22;974;52.400;9.818;2023-04-15T12:06:17;9.50;99.90
1948;DHT22;974;52.400;9.818;2023-04-15T12:19:13;9.60;99.90
1948;DHT22;974;52.400;9.818;2023-04-15T12:21:43;9.60;99.90
1948;DHT22;974;52.400;9.818;2023-04-15T12:24:12;9.60;99.90
1948;DHT22;974;52.400;9.818;2023-04-15T12:26:46;9.60;99.90
1948;DHT22;974;52.400;9.818;2023-04-15T12:29:13;9.70;99.90
1948;DHT22;974;52.400;9.818;2023-04-15T12:31:56;9.60;99.90
1948;DHT22;974;52.400;9.818;2023-04-15T12:34:30;9.70;99.90
1948;DHT22;974;52.400;9.818;2023-04-15T12:36:57;9.70;99.90
1948;DHT22;974;52.400;9.818;2023-04-15T12:39:33;9.70;99.90
1948;DHT22;974;52.400;9.818;2023-04-15T12:41:59;9.80;99.90
1948;DHT22;974;52.400;9.818;2023-04-15T12:44:25;9.80;99.90
1948;DHT22;974;52.400;9.818;2023-04-15T12:46:51;9.80;99.90
1948;DHT22;974;52.400;9.818;2023-04-15T12:49:20;9.80;99.90
1948;DHT22;974;52.400;9.818;2023-04-15T12:51:48;9.80;99.90
1948;DHT22;974;52.400;9.818;2023-04-15T12:54:15;9.90;99.90
1948;DHT22;974;52.400;9.818;2023-04-15T12:56:41;9.90;99.90
1948;DHT22;974;52.400;9.818;2023-04-15T12:59:07;10.00;99.90
1948;DHT22;974;52.400;9.818;2023-04-15T13:01:33;9.90;99.90
1948;DHT22;974;52.400;9.818;2023-04-15T13:03:58;10.00;99.90
1948;DHT22;974;52.400;9.818;2023-04-15T13:06:24;10.00;99.90
1948;DHT22;974;52.400;9.818;2023-04-15T13:08:49;10.00;99.90
1948;DHT22;974;52.400;9.818;2023-04-15T13:11:16;10.10;99.90
1948;DHT22;974;52.400;9.818;2023-04-15T13:13:41;10.10;99.90
1948;DHT22;974;52.400;9.818;2023-04-15T13:16:07;10.20;99.90
1948;DHT22;974;52.400;9.818;2023-04-15T13:18:37;10.20;99.90
1948;DHT22;974;52.400;9.818;2023-04-15T13:21:02;10.30;99.90
1948;DHT22;974;52.400;9.818;2023-04-15T13:23:28;10.20;99.90
1948;DHT22;974;52.400;9.818;2023-04-15T13:25:53;10.30;99.90
1948;DHT22;974;52.400;9.818;2023-04-15T13:28:19;10.40;99.90
1948;DHT22;974;52.400;9.818;2023-04-15T13:30:44;10.50;99.90
1948;DHT22;974;52.400;9.818;2023-04-15T13:33:11;10.60;99.90
1948;DHT22;974;52.400;9.818;2023-04-15T13:35:36;10.60;99.90
1948;DHT22;974;52.400;9.818;2023-04-15T13:38:02;10.60;99.90
1948;DHT22;974;52.400;9.818;2023-04-15T13:40:27;11.20;99.90
1948;DHT22;974;52.400;9.818;2023-04-15T13:42:53;11.60;99.90
1948;DHT22;974;52.400;9.818;2023-04-15T13:45:18;11.80;99.90
1948;DHT22;974;52.400;9.818;2023-04-15T13:47:44;11.90;99.90
1948;DHT22;974;52.400;9.818;2023-04-15T13:50:10;12.20;99.90
1948;DHT22;974;52.400;9.818;2023-04-15T13:52:36;12.60;99.90
1948;DHT22;974;52.400;9.818;2023-04-15T13:55:02;13.30;99.90
1948;DHT22;974;52.400;9.818;2023-04-15T13:57:28;14.60;99.90
1948;DHT22;974;52.400;9.818;2023-04-15T13:59:54;15.30;99.90
1948;DHT22;974;52.400;9.818;2023-04-15T14:02:20;15.00;99.90
1948;DHT22;974;52.400;9.818;2023-04-15T14:04:46;15.90;99.90
1948;DHT22;974;52.400;9.818;2023-04-15T14:07:11;15.30;99.90
1948;DHT22;974;52.400;9.818;2023-04-15T14:09:37;15.60;99.90
1948;DHT22;974;52.400;9.818;2023-04-15T14:12:03;16.30;99.90
1948;DHT22;974;52.400;9.818;2023-04-15T14:14:28;15.80;99.90
1948;DHT22;974;52.400;9.818;2023-04-15T14:16:54;15.50;99.90
1948;DHT22;974;52.400;9.818;2023-04-15T14:19:21;15.20;99.90
1948;DHT22;974;52.400;9.818;2023-04-15T14:21:46;14.90;99.90
1948;DHT22;974;52.400;9.818;2023-04-15T14:24:12;14.80;99.90
1948;DHT22;974;52.400;9.818;2023-04-15T14:26:40;14.50;99.90
1948;DHT22;974;52.400;9.818;2023-04-15T14:29:08;14.30;99.90
1948;DHT22;974;52.400;9.818;2023-04-15T14:31:33;14.20;99.90
1948;DHT22;974;52.400;9.818;2023-04-15T14:33:59;14.10;99.90
1948;DHT22;974;52.400;9.818;2023-04-15T14:36:25;14.10;99.90
1948;DHT22;974;52.400;9.818;2023-04-15T14:38:51;14.00;99.90
1948;DHT22;974;52.400;9.818;2023-04-15T14:41:16;13.80;99.90
1948;DHT22;974;52.400;9.818;2023-04-15T14:43:42;13.50;99.90
1948;DHT22;974;52.400;9.818;2023-04-15T14:46:07;13.50;99.90
1948;DHT22;974;52.400;9.818;2023-04-15T14:48:33;13.60;99.90
1948;DHT22;974;52.400;9.818;2023-04-15T14:50:58;13.80;99.90
1948;DHT22;974;52.400;9.818;2023-04-15T14:53:24;13.90;99.90
1948;DHT22;974;52.400;9.818;2023-04-15T14:55:50;13.90;99.90
1948;DHT22;974;52.400;9.818;2023-04-15T14:58:15;14.00;99.90
1948;DHT22;974;52.400;9.818;2023-04-15T15:00:42;13.90;99.90
1948;DHT22;974;52.400;9.818;2023-04-15T15:03:10;13.80;99.90
1948;DHT22;974;52.400;9.818;2023-04-15T15:05:44;13.90;99.90
1948;DHT22;974;52.400;9.818;2023-04-15T15:08:11;14.10;99.90
1948;DHT22;974;52.400;9.818;2023-04-15T15:10:38;14.20;99.90
1948;DHT22;974;52.400;9.818;2023-04-15T15:13:05;14.10;99.90
1948;DHT22;974;52.400;9.818;2023-04-15T15:15:32;13.90;99.90
1948;DHT22;974;52.400;9.818;2023-04-15T15:17:57;13.80;99.90
1948;DHT22;974;52.400;9.818;2023-04-15T15:20:24;13.70;99.90
1948;DHT22;974;52.400;9.818;2023-04-15T15:22:50;13.60;99.90
1948;DHT22;974;52.400;9.818;2023-04-15T15:25:18;13.50;99.90
1948;DHT22;974;52.400;9.818;2023-04-15T15:27:44;13.50;99.90
1948;DHT22;974;52.400;9.818;2023-04-15T15:30:12;13.50;99.90
1948;DHT22;974;52.400;9.818;2023-04-15T15:32:41;13.50;99.90
1948;DHT22;974;52.400;9.818;2023-04-15T15:35:08;13.50;99.90
1948;DHT22;974;52.400;9.818;2023-04-15T15:37:34;13.50;99.90
1948;DHT22;974;52.400;9.818;2023-04-15T15:40:04;13.70;99.90
1948;DHT22;974;52.400;9.818;2023-04-15T15:42:30;13.80;99.90
1948;DHT22;974;52.400;9.818;2023-04-15T15:44:56;13.80;99.90
1948;DHT22;974;52.400;9.818;2023-04-15T15:47:22;13.80;99.90
1948;DHT22;974;52.400;9.818;2023-04-15T15:49:47;13.70;99.90
1948;DHT22;974;52.400;9.818;2023-04-15T15:52:13;13.70;99.90
1948;DHT22;974;52.400;9.818;2023-04-15T15:54:39;13.60;99.90
1948;DHT22;974;52.400;9.818;2023-04-15T15:57:08;13.50;99.90
1948;DHT22;974;52.400;9.818;2023-04-15T15:59:34;13.50;99.90
1948;DHT22;974;52.400;9.818;2023-04-15T16:02:02;13.60;99.90
1948;DHT22;974;52.400;9.818;2023-04-15T16:04:27;13.80;99.90
1948;DHT22;974;52.400;9.818;2023-04-15T16:06:53;14.00;99.90
1948;DHT22;974;52.400;9.818;2023-04-15T16:09:18;14.00;99.90
1948;DHT22;974;52.400;9.818;2023-04-15T16:11:53;14.10;99.90
1948;DHT22;974;52.400;9.818;2023-04-15T16:14:20;14.00;99.90
1948;DHT22;974;52.400;9.818;2023-04-15T16:16:45;14.10;99.90
1948;DHT22;974;52.400;9.818;2023-04-15T16:19:11;14.00;99.90
1948;DHT22;974;52.400;9.818;2023-04-15T16:21:36;14.00;99.90
1948;DHT22;974;52.400;9.818;2023-04-15T16:24:02;13.90;99.90
1948;DHT22;974;52.400;9.818;2023-04-15T16:26:27;13.80;99.90
1948;DHT22;974;52.400;9.818;2023-04-15T16:28:56;13.60;99.90
1948;DHT22;974;52.400;9.818;2023-04-15T16:31:21;13.40;99.90
1948;DHT22;974;52.400;9.818;2023-04-15T16:33:47;13.20;99.90
1948;DHT22;974;52.400;9.818;2023-04-15T16:36:12;13.00;99.90
1948;DHT22;974;52.400;9.818;2023-04-15T16:38:38;12.90;99.90
1948;DHT22;974;52.400;9.818;2023-04-15T16:41:03;12.80;99.90
1948;DHT22;974;52.400;9.818;2023-04-15T16:43:29;12.70;99.90
1948;DHT22;974;52.400;9.818;2023-04-15T16:45:54;12.70;99.90
1948;DHT22;974;52.400;9.818;2023-04-15T16:48:20;12.70;99.90
1948;DHT22;974;52.400;9.818;2023-04-15T16:50:46;12.60;99.90
1948;DHT22;974;52.400;9.818;2023-04-15T16:53:13;12.60;99.90
1948;DHT22;974;52.400;9.818;2023-04-15T16:55:42;12.50;99.90
1948;DHT22;974;52.400;9.818;2023-04-15T16:58:08;12.50;99.90